Time;durP1;ratioP1;P1;durP2;ratioP2;P2;SDS_P1;SDS_P2;PMS_P1;PMS_P2;Temp;Humidity;BMP_temperature;BMP_pressure;BME280_temperature;BME280_humidity;BME280_pressure;Samples;Min_cycle;Max_cycle;Signal;HPM_P1;HPM_P2
2023/01/27 00:00:35;;;;;;;0.00;0.00;;;1.10;99.90;;;;;;4925661;29;20742;-74
2023/01/27 00:03:05;;;;;;;0.00;0.00;;;1.10;99.90;;;;;;4928944;29;20020;-73
2023/01/27 00:05:31;;;;;;;0.00;0.00;;;1.10;99.90;;;;;;4929671;29;20051;-74
2023/01/27 00:07:58;;;;;;;0.00;0.00;;;1.10;99.90;;;;;;4921996;29;20411;-73
2023/01/27 00:10:27;;;;;;;0.00;0.00;;;1.10;99.90;;;;;;4923868;29;20027;-75
2023/01/27 00:15:38;;;;;;;0.00;0.00;;;1.10;99.90;;;;;;4930252;29;20039;-73
2023/01/27 00:18:04;;;;;;;0.00;0.00;;;1.00;99.90;;;;;;4934094;29;20444;-73
2023/01/27 00:26:05;;;;;;;0.00;0.00;;;1.10;99.90;;;;;;4934040;29;20042;-73
2023/01/27 00:28:34;;;;;;;0.00;0.00;;;1.10;99.90;;;;;;4931239;29;20075;-73
2023/01/27 00:30:59;;;;;;;1.20;1.13;;;1.10;99.90;;;;;;4929277;29;20115;-73
2023/01/27 00:33:29;;;;;;;0.00;0.00;;;1.10;99.90;;;;;;4933281;29;20106;-73
2023/01/27 00:36:05;;;;;;;0.00;0.00;;;1.10;99.90;;;;;;4929994;29;20071;-74
2023/01/27 00:38:34;;;;;;;0.00;0.00;;;1.10;99.90;;;;;;4932432;29;20031;-73
2023/01/27 00:41:18;;;;;;;0.00;0.00;;;1.00;99.90;;;;;;4931633;29;20027;-73
2023/01/27 00:43:52;;;;;;;0.00;0.00;;;1.10;99.90;;;;;;4946130;28;20409;-74
2023/01/27 00:46:20;;;;;;;0.00;0.00;;;1.00;99.90;;;;;;4933045;29;20469;-74
2023/01/27 00:48:46;;;;;;;0.00;0.00;;;1.00;99.90;;;;;;4955453;28;20579;-73
2023/01/27 00:51:12;;;;;;;0.00;0.00;;;1.00;99.90;;;;;;4929419;29;20056;-73
2023/01/27 00:53:38;;;;;;;0.00;0.00;;;1.00;99.90;;;;;;4933014;29;20269;-74
2023/01/27 00:56:05;;;;;;;0.00;0.00;;;1.00;99.90;;;;;;4927652;29;20437;-74
2023/01/27 00:58:31;;;;;;;0.00;0.00;;;1.10;99.90;;;;;;4923494;29;20032;-73
2023/01/27 01:01:02;;;;;;;0.00;0.00;;;1.00;99.90;;;;;;4933968;29;20485;-73
2023/01/27 01:03:33;;;;;;;0.00;0.00;;;1.00;99.90;;;;;;4934743;29;20427;-73
2023/01/27 01:06:00;;;;;;;0.00;0.00;;;1.00;99.90;;;;;;4929513;29;20028;-73
2023/01/27 01:08:27;;;;;;;0.00;0.00;;;1.00;99.90;;;;;;4929408;29;20082;-73
2023/01/27 01:10:53;;;;;;;0.00;0.00;;;1.10;99.90;;;;;;4932935;29;20028;-73
2023/01/27 01:13:20;;;;;;;0.00;0.00;;;1.00;99.90;;;;;;4932836;29;20032;-73
2023/01/27 01:15:46;;;;;;;0.00;0.00;;;1.00;99.90;;;;;;4929885;29;20020;-74
2023/01/27 01:18:12;;;;;;;0.00;0.00;;;1.00;99.90;;;;;;4934478;29;20503;-74
2023/01/27 01:20:40;;;;;;;0.00;0.00;;;1.00;99.90;;;;;;4932736;29;20046;-73
2023/01/27 01:23:07;;;;;;;0.00;0.00;;;1.00;99.90;;;;;;4930103;29;20027;-74
2023/01/27 01:25:33;;;;;;;0.00;0.00;;;1.00;99.90;;;;;;4933669;29;20030;-73
2023/01/27 01:27:59;;;;;;;0.00;0.00;;;1.00;99.90;;;;;;4933093;29;20111;-73
2023/01/27 01:30:26;;;;;;;0.00;0.00;;;1.00;99.90;;;;;;4931284;29;20032;-73
2023/01/27 01:32:55;;;;;;;0.00;0.00;;;1.10;99.90;;;;;;4922194;29;20027;-74
2023/01/27 01:35:24;;;;;;;0.00;0.00;;;1.00;99.90;;;;;;4931911;29;20032;-75
2023/01/27 01:37:50;;;;;;;0.00;0.00;;;1.00;99.90;;;;;;4933647;29;20135;-74
2023/01/27 01:40:16;;;;;;;0.00;0.00;;;1.10;99.90;;;;;;4930956;29;20502;-74
2023/01/27 01:42:53;;;;;;;0.00;0.00;;;1.00;99.90;;;;;;4928961;29;20167;-73
2023/01/27 01:45:31;;;;;;;0.00;0.00;;;1.10;99.90;;;;;;4946648;28;20055;-73
2023/01/27 01:48:09;;;;;;;0.00;0.00;;;1.10;99.90;;;;;;4943033;29;20077;-74
2023/01/27 01:50:36;;;;;;;0.98;0.63;;;1.10;99.90;;;;;;4926056;29;20132;-75
2023/01/27 01:53:05;;;;;;;0.00;0.00;;;1.20;99.90;;;;;;4931675;29;20093;-73
2023/01/27 01:55:33;;;;;;;0.00;0.00;;;1.10;99.90;;;;;;4929792;29;20071;-73
2023/01/27 01:58:00;;;;;;;0.00;0.00;;;1.10;99.90;;;;;;4931104;29;20020;-73
2023/01/27 02:00:27;;;;;;;0.00;0.00;;;1.10;99.90;;;;;;4927235;29;20565;-74
2023/01/27 02:02:53;;;;;;;0.00;0.00;;;1.20;99.90;;;;;;4943877;28;20031;-74
2023/01/27 02:05:27;;;;;;;0.00;0.00;;;1.10;99.90;;;;;;4932025;29;20039;-73
2023/01/27 02:07:58;;;;;;;0.10;0.10;;;1.10;99.90;;;;;;4944840;28;20741;-73
2023/01/27 02:10:24;;;;;;;0.00;0.00;;;1.10;99.90;;;;;;4931030;29;20019;-73
2023/01/27 02:12:50;;;;;;;;;;;1.10;99.90;;;;;;4932146;29;20105;-74
2023/01/27 02:15:16;;;;;;;0.00;0.00;;;1.10;99.90;;;;;;4930998;29;19915;-74
2023/01/27 02:17:42;;;;;;;0.00;0.00;;;1.00;99.90;;;;;;4926935;29;20032;-75
2023/01/27 02:20:14;;;;;;;0.00;0.00;;;1.00;99.90;;;;;;4954148;28;20028;-73
2023/01/27 02:23:06;;;;;;;0.00;0.00;;;1.00;99.90;;;;;;4931939;29;20062;-73
2023/01/27 02:25:35;;;;;;;0.40;0.40;;;1.00;99.90;;;;;;4928351;29;20039;-73
2023/01/27 02:28:07;;;;;;;0.00;0.00;;;1.00;99.90;;;;;;4936645;29;20630;-73
2023/01/27 02:30:32;;;;;;;0.00;0.00;;;1.10;99.90;;;;;;4944781;28;20047;-73
2023/01/27 02:32:58;;;;;;;0.00;0.00;;;1.10;99.90;;;;;;4944335;28;20414;-73
2023/01/27 02:35:35;;;;;;;0.00;0.00;;;1.00;99.90;;;;;;4935207;29;20390;-73
2023/01/27 02:38:04;;;;;;;0.00;0.00;;;1.00;99.90;;;;;;4924402;29;20024;-73
2023/01/27 02:40:32;;;;;;;0.00;0.00;;;1.00;99.90;;;;;;4922357;29;20031;-73
2023/01/27 02:42:58;;;;;;;0.00;0.00;;;1.00;99.90;;;;;;4931949;29;20038;-73
2023/01/27 02:45:24;;;;;;;0.00;0.00;;;1.00;99.90;;;;;;4930282;29;20054;-73
2023/01/27 02:47:49;;;;;;;0.00;0.00;;;1.00;99.90;;;;;;4932385;29;20746;-74
2023/01/27 02:50:16;;;;;;;0.00;0.00;;;1.00;99.90;;;;;;4932543;28;20497;-73
2023/01/27 02:52:42;;;;;;;0.00;0.00;;;1.00;99.90;;;;;;4930305;29;20032;-73
2023/01/27 02:55:08;;;;;;;0.00;0.00;;;1.00;99.90;;;;;;4942847;28;20039;-73
2023/01/27 02:57:34;;;;;;;0.00;0.00;;;1.00;99.90;;;;;;4930258;29;20033;-78
2023/01/27 03:00:00;;;;;;;0.00;0.00;;;1.00;99.90;;;;;;4930036;29;20027;-74
2023/01/27 03:02:29;;;;;;;0.00;0.00;;;1.10;99.90;;;;;;4925656;29;20024;-73
2023/01/27 03:04:59;;;;;;;0.05;0.05;;;1.00;99.90;;;;;;4932565;29;20083;-73
2023/01/27 03:07:24;;;;;;;0.00;0.00;;;1.00;99.90;;;;;;4930706;29;20023;-73
2023/01/27 03:09:50;;;;;;;0.00;0.00;;;1.00;99.90;;;;;;4926211;28;20559;-72
2023/01/27 03:12:18;;;;;;;0.00;0.00;;;1.00;99.90;;;;;;4925965;29;20034;-74
2023/01/27 03:20:14;;;;;;;0.00;0.00;;;1.00;99.90;;;;;;4930752;29;20106;-73
2023/01/27 03:22:40;;;;;;;0.00;0.00;;;0.90;99.90;;;;;;4938382;29;20079;-73
2023/01/27 03:25:07;;;;;;;0.00;0.00;;;1.00;99.90;;;;;;4930692;29;20078;-73
2023/01/27 03:27:34;;;;;;;0.00;0.00;;;0.90;99.90;;;;;;4936236;29;20063;-73
2023/01/27 03:29:59;;;;;;;0.00;0.00;;;1.00;99.90;;;;;;4921819;29;20367;-73
2023/01/27 03:32:30;;;;;;;0.00;0.00;;;0.80;99.90;;;;;;4931492;29;20046;-73
2023/01/27 03:35:00;;;;;;;0.00;0.00;;;0.80;99.90;;;;;;4931279;29;20023;-73
2023/01/27 03:48:36;;;;;;;0.00;0.00;;;0.80;99.90;;;;;;4928268;29;20438;-73
2023/01/27 03:51:04;;;;;;;0.00;0.00;;;0.90;99.90;;;;;;4952660;28;20078;-74
2023/01/27 03:53:33;;;;;;;0.00;0.00;;;0.90;99.90;;;;;;4930829;29;20370;-74
2023/01/27 03:55:59;;;;;;;0.00;0.00;;;0.90;99.90;;;;;;4929832;29;20024;-73
2023/01/27 03:58:27;;;;;;;0.00;0.00;;;0.90;99.90;;;;;;4926087;29;20035;-73
2023/01/27 04:00:55;;;;;;;0.00;0.00;;;0.90;99.90;;;;;;4930883;29;20629;-73
2023/01/27 04:08:58;;;;;;;0.00;0.00;;;0.90;99.90;;;;;;4923499;29;20031;-73
2023/01/27 04:14:11;;;;;;;0.00;0.00;;;0.80;99.90;;;;;;4934294;29;20030;-73
2023/01/27 04:16:37;;;;;;;0.00;0.00;;;0.80;99.90;;;;;;4931765;29;20063;-74
2023/01/27 04:19:05;;;;;;;0.00;0.00;;;0.80;99.90;;;;;;4934158;29;20019;-77
2023/01/27 04:21:31;;;;;;;0.38;0.38;;;0.80;99.90;;;;;;4925155;29;20035;-74
2023/01/27 04:23:57;;;;;;;0.00;0.00;;;0.70;99.90;;;;;;4925918;29;20106;-73
2023/01/27 04:26:23;;;;;;;0.00;0.00;;;0.80;99.90;;;;;;4942324;29;20098;-73
2023/01/27 04:28:49;;;;;;;0.00;0.00;;;0.80;99.90;;;;;;4933595;29;20490;-74
2023/01/27 04:31:15;;;;;;;0.00;0.00;;;0.80;99.90;;;;;;4930523;29;20737;-74
2023/01/27 04:33:43;;;;;;;0.00;0.00;;;0.80;99.90;;;;;;4932044;29;20027;-73
2023/01/27 04:36:10;;;;;;;0.00;0.00;;;0.90;99.90;;;;;;4928277;29;20032;-72
2023/01/27 04:38:35;;;;;;;;;;;0.80;99.90;;;;;;4926555;29;20024;-73
2023/01/27 04:41:01;;;;;;;0.00;0.00;;;0.90;99.90;;;;;;4945866;28;19927;-73
2023/01/27 04:43:26;;;;;;;0.00;0.00;;;0.90;99.90;;;;;;4942558;28;20115;-73
2023/01/27 04:45:52;;;;;;;0.00;0.00;;;0.90;99.90;;;;;;4930973;29;20038;-73
2023/01/27 04:48:18;;;;;;;0.00;0.00;;;0.90;99.90;;;;;;4923680;29;20035;-73
2023/01/27 04:50:43;;;;;;;0.00;0.00;;;0.90;99.90;;;;;;4933069;29;20692;-74
2023/01/27 04:53:09;;;;;;;0.00;0.00;;;0.90;99.90;;;;;;4934352;29;20762;-73
2023/01/27 04:55:35;;;;;;;0.00;0.00;;;0.90;99.90;;;;;;4932996;29;20110;-74
2023/01/27 04:58:00;;;;;;;0.00;0.00;;;1.00;99.90;;;;;;4927414;29;20374;-74
2023/01/27 05:00:27;;;;;;;0.00;0.00;;;0.90;99.90;;;;;;4922000;29;20039;-73
2023/01/27 05:02:52;;;;;;;0.00;0.00;;;0.90;99.90;;;;;;4933694;28;20374;-74
2023/01/27 05:05:18;;;;;;;0.00;0.00;;;0.90;99.90;;;;;;4932348;29;20038;-74
2023/01/27 05:07:44;;;;;;;0.00;0.00;;;0.90;99.90;;;;;;4928670;29;20035;-73
2023/01/27 05:10:10;;;;;;;0.00;0.00;;;0.80;99.90;;;;;;4928473;29;20889;-74
2023/01/27 05:12:35;;;;;;;0.00;0.00;;;0.90;99.90;;;;;;4928868;29;20473;-73
2023/01/27 05:15:02;;;;;;;0.00;0.00;;;0.90;99.90;;;;;;4934521;29;20024;-74
2023/01/27 05:17:32;;;;;;;0.00;0.00;;;0.90;99.90;;;;;;4943577;28;20075;-73
2023/01/27 05:19:58;;;;;;;0.00;0.00;;;0.80;99.90;;;;;;4933816;29;20024;-73
2023/01/27 05:22:25;;;;;;;0.00;0.00;;;0.80;99.90;;;;;;4925405;29;20053;-74
2023/01/27 05:24:51;;;;;;;0.00;0.00;;;0.80;99.90;;;;;;4932814;29;20109;-74
2023/01/27 05:27:16;;;;;;;0.00;0.00;;;0.80;99.90;;;;;;4939239;29;20474;-73
2023/01/27 05:29:42;;;;;;;0.00;0.00;;;0.80;99.90;;;;;;4921178;29;20030;-73
2023/01/27 05:32:08;;;;;;;0.15;0.15;;;0.80;99.90;;;;;;4930106;29;20103;-74
2023/01/27 05:34:35;;;;;;;0.00;0.00;;;0.80;99.90;;;;;;4932720;29;20027;-74
2023/01/27 05:37:01;;;;;;;0.00;0.00;;;0.80;99.90;;;;;;4931968;29;20067;-73
2023/01/27 05:39:26;;;;;;;0.00;0.00;;;0.80;99.90;;;;;;4930037;29;20680;-74
2023/01/27 05:41:53;;;;;;;0.00;0.00;;;0.80;99.90;;;;;;4929589;29;20274;-73
2023/01/27 05:44:18;;;;;;;0.00;0.00;;;0.80;99.90;;;;;;4921321;29;20053;-73
2023/01/27 05:46:46;;;;;;;0.00;0.00;;;0.80;99.90;;;;;;4933077;29;20157;-72
2023/01/27 05:49:12;;;;;;;0.00;0.00;;;0.80;99.90;;;;;;4934413;29;20023;-73
2023/01/27 05:51:38;;;;;;;0.00;0.00;;;0.80;99.90;;;;;;4928912;29;20038;-73
2023/01/27 05:54:12;;;;;;;0.00;0.00;;;0.80;99.90;;;;;;4925648;29;20046;-72
2023/01/27 05:56:39;;;;;;;0.00;0.00;;;0.80;99.90;;;;;;4930259;29;20374;-72
2023/01/27 05:59:06;;;;;;;0.00;0.00;;;0.80;99.90;;;;;;4932532;29;20629;-73
2023/01/27 06:01:34;;;;;;;0.00;0.00;;;0.90;99.90;;;;;;4930345;29;20027;-72
2023/01/27 06:03:59;;;;;;;0.00;0.00;;;0.80;99.90;;;;;;4930350;29;20027;-72
2023/01/27 06:06:27;;;;;;;0.00;0.00;;;0.80;99.90;;;;;;4924710;29;20028;-73
2023/01/27 06:08:53;;;;;;;0.00;0.00;;;0.80;99.90;;;;;;4933179;29;20166;-72
2023/01/27 06:11:22;;;;;;;0.00;0.00;;;0.90;99.90;;;;;;4932357;29;20114;-73
2023/01/27 06:13:48;;;;;;;0.00;0.00;;;0.80;99.90;;;;;;4931908;29;20028;-74
2023/01/27 06:16:27;;;;;;;0.00;0.00;;;0.80;99.90;;;;;;4926663;29;20023;-73
2023/01/27 06:18:53;;;;;;;0.00;0.00;;;0.80;99.90;;;;;;4929659;29;20070;-72
2023/01/27 06:21:19;;;;;;;0.00;0.00;;;0.80;99.90;;;;;;4930510;29;20026;-72
2023/01/27 06:23:47;;;;;;;0.00;0.00;;;0.80;99.90;;;;;;4931416;29;20177;-72
2023/01/27 06:26:16;;;;;;;0.00;0.00;;;0.90;99.90;;;;;;4931554;29;20039;-73
2023/01/27 06:28:42;;;;;;;0.17;0.17;;;0.80;99.90;;;;;;4925671;29;20118;-74
2023/01/27 06:31:17;;;;;;;0.00;0.00;;;0.80;99.90;;;;;;4930762;29;20119;-73
2023/01/27 06:33:43;;;;;;;0.00;0.00;;;0.80;99.90;;;;;;4930389;29;20028;-73
2023/01/27 06:36:12;;;;;;;0.07;0.07;;;0.80;99.90;;;;;;4929793;29;20030;-72
2023/01/27 06:38:38;;;;;;;0.00;0.00;;;0.80;99.90;;;;;;4929554;29;20028;-73
2023/01/27 06:41:05;;;;;;;0.00;0.00;;;0.80;99.90;;;;;;4927083;29;20512;-71
2023/01/27 06:43:30;;;;;;;0.20;0.20;;;0.90;99.90;;;;;;4929469;29;20358;-72
2023/01/27 06:45:59;;;;;;;0.00;0.00;;;0.80;99.90;;;;;;4950807;28;20114;-72
2023/01/27 06:48:25;;;;;;;1.23;1.20;;;0.80;99.90;;;;;;4931011;29;20115;-73
2023/01/27 06:50:55;;;;;;;0.65;0.65;;;0.80;99.90;;;;;;4930873;29;20106;-73
2023/01/27 06:53:21;;;;;;;0.00;0.00;;;0.80;99.90;;;;;;4929726;29;20047;-73
2023/01/27 06:55:47;;;;;;;0.00;0.00;;;0.80;99.90;;;;;;4928797;29;20028;-78
2023/01/27 06:58:14;;;;;;;0.00;0.00;;;0.90;99.90;;;;;;4927611;29;20079;-74
2023/01/27 07:00:41;;;;;;;0.00;0.00;;;0.90;99.90;;;;;;4948991;28;20031;-73
2023/01/27 07:03:09;;;;;;;0.30;0.30;;;0.80;99.90;;;;;;4931951;29;20027;-73
2023/01/27 07:05:35;;;;;;;0.00;0.00;;;0.80;99.90;;;;;;4929664;29;20028;-73
2023/01/27 07:08:00;;;;;;;0.40;0.40;;;0.90;99.90;;;;;;4929850;29;20024;-73
2023/01/27 07:10:26;;;;;;;0.00;0.00;;;1.00;99.90;;;;;;4926543;29;20071;-73
2023/01/27 07:12:52;;;;;;;0.00;0.00;;;0.90;99.90;;;;;;4929804;29;20038;-73
2023/01/27 07:15:18;;;;;;;0.00;0.00;;;0.90;99.90;;;;;;4932147;29;20082;-73
2023/01/27 07:17:44;;;;;;;0.00;0.00;;;0.90;99.90;;;;;;4931012;29;20040;-74
2023/01/27 07:20:12;;;;;;;0.00;0.00;;;1.00;99.90;;;;;;4930349;29;20027;-73
2023/01/27 07:22:39;;;;;;;0.00;0.00;;;0.90;99.90;;;;;;4926726;29;20024;-73
2023/01/27 07:25:05;;;;;;;0.00;0.00;;;0.90;99.90;;;;;;4933280;29;20578;-74
2023/01/27 07:27:31;;;;;;;0.00;0.00;;;1.00;99.90;;;;;;4932143;29;20031;-73
2023/01/27 07:29:57;;;;;;;0.00;0.00;;;1.00;99.90;;;;;;4933644;29;20024;-73
2023/01/27 07:32:23;;;;;;;0.00;0.00;;;0.90;99.90;;;;;;4936997;29;20110;-74
2023/01/27 07:34:48;;;;;;;0.10;0.10;;;0.90;99.90;;;;;;4932464;29;20119;-74
2023/01/27 07:37:14;;;;;;;1.10;1.10;;;0.90;99.90;;;;;;4935199;29;21469;-73
2023/01/27 07:39:40;;;;;;;0.00;0.00;;;0.90;99.90;;;;;;4930324;29;20079;-73
2023/01/27 07:42:06;;;;;;;0.00;0.00;;;1.00;99.90;;;;;;4931862;29;20051;-73
2023/01/27 07:44:32;;;;;;;0.00;0.00;;;1.00;99.90;;;;;;4928615;29;20020;-74
2023/01/27 07:46:58;;;;;;;0.00;0.00;;;1.00;99.90;;;;;;4935380;29;20032;-73
2023/01/27 07:49:25;;;;;;;0.00;0.00;;;1.00;99.90;;;;;;4935319;29;20039;-73
2023/01/27 07:51:51;;;;;;;0.00;0.00;;;1.10;99.90;;;;;;4933147;29;20026;-75
2023/01/27 07:54:17;;;;;;;0.00;0.00;;;1.00;99.90;;;;;;4932991;29;20039;-73
2023/01/27 07:56:42;;;;;;;0.00;0.00;;;1.00;99.90;;;;;;4927776;29;20032;-73
2023/01/27 07:59:09;;;;;;;0.00;0.00;;;1.00;99.90;;;;;;4935612;29;20090;-74
2023/01/27 08:01:40;;;;;;;0.00;0.00;;;1.10;99.90;;;;;;4931785;29;20032;-73
2023/01/27 08:04:05;;;;;;;0.00;0.00;;;1.10;99.90;;;;;;4944672;28;20485;-74
2023/01/27 08:06:31;;;;;;;0.00;0.00;;;1.10;99.90;;;;;;4935563;29;20042;-73
2023/01/27 08:08:57;;;;;;;0.00;0.00;;;1.20;99.90;;;;;;4935753;29;20047;-75
2023/01/27 08:11:22;;;;;;;0.00;0.00;;;1.20;99.90;;;;;;4948554;28;20533;-73
2023/01/27 08:13:48;;;;;;;0.00;0.00;;;1.30;99.90;;;;;;4934470;29;20146;-74
2023/01/27 08:16:14;;;;;;;0.00;0.00;;;1.30;99.90;;;;;;4932663;29;20051;-72
2023/01/27 08:18:40;;;;;;;0.00;0.00;;;1.40;99.90;;;;;;4931707;29;20086;-74
2023/01/27 08:21:10;;;;;;;0.00;0.00;;;1.40;99.90;;;;;;4929710;29;20031;-74
2023/01/27 08:23:35;;;;;;;0.00;0.00;;;1.40;99.90;;;;;;4938211;29;20027;-73
2023/01/27 08:26:04;;;;;;;0.00;0.00;;;1.40;99.90;;;;;;4935212;29;20034;-74
2023/01/27 08:28:31;;;;;;;0.00;0.00;;;1.40;99.90;;;;;;4938940;29;20031;-73
2023/01/27 08:31:05;;;;;;;0.00;0.00;;;1.40;99.90;;;;;;4929481;29;20046;-73
2023/01/27 08:33:31;;;;;;;0.00;0.00;;;1.40;99.90;;;;;;4929075;29;20020;-73
2023/01/27 08:36:04;;;;;;;0.00;0.00;;;1.40;99.90;;;;;;4928189;29;20028;-73
2023/01/27 08:38:30;;;;;;;0.00;0.00;;;1.50;99.90;;;;;;4928724;29;20168;-73
2023/01/27 08:41:07;;;;;;;0.00;0.00;;;1.50;99.90;;;;;;4933030;29;20106;-73
2023/01/27 08:43:33;;;;;;;0.00;0.00;;;1.60;99.90;;;;;;4931901;29;20039;-74
2023/01/27 08:45:59;;;;;;;0.00;0.00;;;1.60;99.90;;;;;;4931962;29;20082;-74
2023/01/27 08:48:26;;;;;;;0.00;0.00;;;1.60;99.90;;;;;;4928177;29;20394;-73
2023/01/27 08:50:53;;;;;;;;;;;1.60;99.90;;;;;;4933844;29;20034;-74
2023/01/27 08:53:20;;;;;;;0.00;0.00;;;1.70;99.90;;;;;;4931976;28;19906;-73
2023/01/27 08:55:46;;;;;;;0.00;0.00;;;1.70;99.90;;;;;;4933475;29;20499;-73
2023/01/27 08:58:12;;;;;;;0.00;0.00;;;1.60;99.90;;;;;;4932213;29;20123;-73
2023/01/27 09:00:39;;;;;;;0.00;0.00;;;1.70;99.90;;;;;;4927804;29;20499;-74
2023/01/27 09:03:05;;;;;;;0.00;0.00;;;1.70;99.90;;;;;;4934893;29;20115;-74
2023/01/27 09:05:31;;;;;;;0.00;0.00;;;1.80;99.90;;;;;;4931239;29;20114;-75
2023/01/27 09:07:56;;;;;;;0.10;0.10;;;1.80;99.90;;;;;;4932914;29;20462;-73
2023/01/27 09:10:22;;;;;;;0.00;0.00;;;1.90;99.90;;;;;;4947228;28;20020;-74
2023/01/27 09:12:47;;;;;;;0.00;0.00;;;1.90;99.90;;;;;;4950467;28;20036;-73
2023/01/27 09:15:17;;;;;;;0.00;0.00;;;1.90;99.90;;;;;;4925875;29;20292;-74
2023/01/27 09:17:43;;;;;;;0.00;0.00;;;1.90;99.90;;;;;;4932868;29;20043;-74
2023/01/27 09:20:10;;;;;;;0.00;0.00;;;1.90;99.90;;;;;;4934615;28;20034;-73
2023/01/27 09:22:39;;;;;;;0.00;0.00;;;1.90;99.90;;;;;;4931655;29;20066;-73
2023/01/27 09:25:05;;;;;;;0.00;0.00;;;1.90;99.90;;;;;;4931006;29;20027;-74
2023/01/27 09:27:31;;;;;;;0.00;0.00;;;2.00;99.90;;;;;;4931232;29;20043;-73
2023/01/27 09:29:57;;;;;;;0.00;0.00;;;2.00;99.90;;;;;;4925473;29;20537;-74
2023/01/27 09:32:22;;;;;;;0.00;0.00;;;2.00;99.90;;;;;;4925286;29;20115;-77
2023/01/27 09:34:48;;;;;;;0.00;0.00;;;2.00;99.90;;;;;;4933730;29;20070;-76
2023/01/27 09:37:18;;;;;;;0.00;0.00;;;2.00;99.90;;;;;;4931332;29;20027;-75
2023/01/27 09:39:55;;;;;;;0.00;0.00;;;1.90;99.90;;;;;;4946412;28;20020;-74
2023/01/27 09:42:29;;;;;;;;;;;1.90;99.90;;;;;;4931023;29;20036;-74
2023/01/27 09:45:13;;;;;;;0.00;0.00;;;1.90;99.90;;;;;;4930976;29;19919;-73
2023/01/27 09:48:17;;;;;;;0.00;0.00;;;1.90;99.90;;;;;;4943434;28;20051;-73
2023/01/27 09:51:02;;;;;;;0.00;0.00;;;2.00;99.90;;;;;;4914351;29;20146;-72
2023/01/27 09:53:37;;;;;;;0.00;0.00;;;2.00;99.90;;;;;;4945573;28;20023;-73
2023/01/27 09:56:14;;;;;;;0.00;0.00;;;2.10;99.90;;;;;;4928959;29;20512;-73
2023/01/27 09:58:46;;;;;;;0.63;0.63;;;2.10;99.90;;;;;;4933207;29;20040;-73
2023/01/27 10:01:23;;;;;;;0.00;0.00;;;2.20;99.90;;;;;;4931141;29;20028;-72
2023/01/27 10:04:10;;;;;;;0.00;0.00;;;2.20;99.90;;;;;;4942240;29;20063;-74
2023/01/27 10:07:08;;;;;;;0.00;0.00;;;2.20;99.90;;;;;;4929872;29;20035;-74
2023/01/27 10:09:55;;;;;;;0.00;0.00;;;2.20;99.90;;;;;;4937606;29;20083;-73
2023/01/27 10:12:44;;;;;;;0.00;0.00;;;2.30;99.90;;;;;;4928637;29;20035;-73
2023/01/27 10:15:38;;;;;;;0.00;0.00;;;2.30;99.90;;;;;;4941208;29;20039;-74
2023/01/27 10:18:45;;;;;;;0.00;0.00;;;2.20;99.90;;;;;;4946453;28;20027;-73
2023/01/27 10:21:33;;;;;;;0.00;0.00;;;2.30;99.90;;;;;;4913850;28;20039;-74
2023/01/27 10:24:11;;;;;;;;;;;2.20;99.90;;;;;;4928448;29;20016;-74
2023/01/27 10:26:50;;;;;;;0.00;0.00;;;2.30;99.90;;;;;;4931246;29;20497;-73
2023/01/27 10:29:22;;;;;;;0.00;0.00;;;2.20;99.90;;;;;;4931366;29;20286;-73
2023/01/27 10:31:57;;;;;;;0.00;0.00;;;2.20;99.90;;;;;;4930402;29;20110;-73
2023/01/27 10:35:09;;;;;;;0.00;0.00;;;2.20;99.90;;;;;;4931028;29;20920;-74
2023/01/27 10:37:53;;;;;;;0.00;0.00;;;2.10;99.90;;;;;;4920817;29;20118;-73
2023/01/27 10:40:40;;;;;;;0.00;0.00;;;2.10;99.90;;;;;;4930480;29;20114;-75
2023/01/27 10:43:24;;;;;;;0.00;0.00;;;2.00;99.90;;;;;;4943908;28;20024;-74
2023/01/27 10:45:59;;;;;;;0.00;0.00;;;2.00;99.90;;;;;;4930345;29;20031;-74
2023/01/27 10:48:50;;;;;;;0.00;0.00;;;1.90;99.90;;;;;;4932522;29;20051;-74
2023/01/27 10:51:30;;;;;;;0.00;0.00;;;2.00;99.90;;;;;;4929203;29;20032;-75
2023/01/27 10:54:11;;;;;;;0.00;0.00;;;2.00;99.90;;;;;;4930262;29;20016;-74
2023/01/27 10:56:45;;;;;;;0.00;0.00;;;2.00;99.90;;;;;;4925126;29;20024;-77
2023/01/27 10:59:41;;;;;;;0.00;0.00;;;2.00;99.90;;;;;;4922027;29;20569;-75
2023/01/27 11:02:10;;;;;;;0.00;0.00;;;2.00;99.90;;;;;;4925809;29;20087;-74
2023/01/27 11:05:00;;;;;;;0.00;0.00;;;2.00;99.90;;;;;;4931695;29;20746;-74
2023/01/27 11:07:26;;;;;;;0.00;0.00;;;2.00;99.90;;;;;;4932233;29;20110;-75
2023/01/27 11:09:59;;;;;;;0.30;0.30;;;2.10;99.90;;;;;;4931577;29;20028;-78
2023/01/27 11:12:39;;;;;;;0.00;0.00;;;2.00;99.90;;;;;;4931625;29;20020;-74
2023/01/27 11:15:25;;;;;;;0.10;0.10;;;2.10;99.90;;;;;;4942550;28;20038;-75
2023/01/27 11:18:04;;;;;;;0.00;0.00;;;2.20;99.90;;;;;;4929746;29;20024;-74
2023/01/27 11:20:36;;;;;;;0.00;0.00;;;2.30;99.90;;;;;;4944023;28;20040;-75
2023/01/27 11:23:08;;;;;;;0.00;0.00;;;2.20;99.90;;;;;;4931297;29;20488;-74
2023/01/27 11:25:36;;;;;;;0.00;0.00;;;2.30;99.90;;;;;;4931328;29;20035;-73
2023/01/27 11:28:37;;;;;;;0.00;0.00;;;2.50;99.90;;;;;;4937180;29;20028;-74
2023/01/27 11:31:37;;;;;;;0.00;0.00;;;2.50;99.90;;;;;;4929474;29;20394;-74
2023/01/27 11:34:36;;;;;;;0.00;0.00;;;2.60;99.90;;;;;;4927719;29;20043;-74
2023/01/27 11:37:21;;;;;;;0.00;0.00;;;2.60;99.90;;;;;;4927653;29;20107;-75
2023/01/27 11:39:48;;;;;;;0.00;0.00;;;2.60;99.90;;;;;;4929858;29;20126;-74
2023/01/27 11:42:13;;;;;;;;;;;2.70;99.90;;;;;;4930811;29;20106;-73
2023/01/27 11:44:53;;;;;;;0.00;0.00;;;2.70;99.90;;;;;;4931107;29;19950;-76
2023/01/27 11:47:26;;;;;;;0.00;0.00;;;2.70;99.90;;;;;;4930699;29;20027;-73
2023/01/27 11:49:53;;;;;;;0.00;0.00;;;2.70;99.90;;;;;;4932358;29;20099;-74
2023/01/27 11:52:20;;;;;;;0.00;0.00;;;2.50;99.90;;;;;;4927744;29;20028;-73
2023/01/27 11:55:16;;;;;;;0.00;0.00;;;2.50;99.90;;;;;;4951367;28;20198;-74
2023/01/27 11:58:20;;;;;;;0.00;0.00;;;2.50;99.90;;;;;;4929674;29;20047;-74
2023/01/27 12:01:02;;;;;;;0.00;0.00;;;2.30;99.90;;;;;;4930778;29;20161;-74
2023/01/27 12:03:58;;;;;;;0.00;0.00;;;2.10;99.90;;;;;;4930514;29;20031;-75
2023/01/27 12:06:57;;;;;;;0.00;0.00;;;2.10;99.90;;;;;;4930521;29;20035;-75
2023/01/27 12:09:40;;;;;;;0.00;0.00;;;2.10;99.90;;;;;;4925629;29;20047;-74
2023/01/27 12:12:14;;;;;;;0.00;0.00;;;2.10;99.90;;;;;;4924967;29;20110;-79
2023/01/27 12:15:13;;;;;;;0.00;0.00;;;2.00;99.90;;;;;;4931987;29;20027;-75
2023/01/27 12:17:43;;;;;;;0.00;0.00;;;2.00;99.90;;;;;;4926567;29;20122;-75
2023/01/27 12:20:20;;;;;;;0.00;0.00;;;2.00;99.90;;;;;;4931929;29;20223;-75
2023/01/27 12:22:57;;;;;;;0.00;0.00;;;2.20;99.90;;;;;;4933713;29;20501;-74
2023/01/27 12:25:31;;;;;;;0.00;0.00;;;2.20;99.90;;;;;;4933197;29;20036;-74
2023/01/27 12:28:03;;;;;;;0.00;0.00;;;2.40;99.90;;;;;;4932842;29;20658;-74
2023/01/27 12:30:35;;;;;;;0.00;0.00;;;2.40;99.90;;;;;;4932939;29;20032;-75
2023/01/27 12:33:25;;;;;;;0.15;0.15;;;2.50;99.90;;;;;;4933452;29;20389;-74
2023/01/27 12:35:58;;;;;;;0.00;0.00;;;2.70;99.90;;;;;;4934081;29;20058;-75
2023/01/27 12:38:25;;;;;;;0.00;0.00;;;2.70;99.90;;;;;;4943296;29;20059;-74
2023/01/27 12:41:04;;;;;;;0.00;0.00;;;2.70;99.90;;;;;;4932401;29;20040;-75
2023/01/27 12:43:30;;;;;;;0.00;0.00;;;2.80;99.90;;;;;;4931503;29;20422;-75
2023/01/27 12:46:17;;;;;;;0.00;0.00;;;2.90;99.90;;;;;;4933688;29;20473;-74
2023/01/27 12:48:51;;;;;;;0.10;0.10;;;2.90;99.90;;;;;;4933209;29;20027;-75
2023/01/27 12:51:21;;;;;;;0.00;0.00;;;2.80;99.90;;;;;;4933450;29;20035;-75
2023/01/27 12:53:50;;;;;;;0.00;0.00;;;2.70;99.90;;;;;;4933642;29;20024;-74
2023/01/27 12:56:33;;;;;;;0.00;0.00;;;2.60;99.90;;;;;;4934217;29;20507;-74
2023/01/27 12:59:00;;;;;;;0.00;0.00;;;2.60;99.90;;;;;;4939906;29;20749;-75
2023/01/27 13:01:28;;;;;;;0.00;0.00;;;2.60;99.90;;;;;;4934419;29;20051;-75
2023/01/27 13:04:10;;;;;;;0.10;0.10;;;2.60;99.90;;;;;;4932007;29;20036;-75
2023/01/27 13:06:42;;;;;;;0.00;0.00;;;2.50;99.90;;;;;;4944908;28;20068;-74
2023/01/27 13:09:46;;;;;;;0.10;0.10;;;2.50;99.90;;;;;;4947481;28;20050;-75
2023/01/27 13:12:19;;;;;;;0.00;0.00;;;2.50;99.90;;;;;;4945770;28;20554;-75
2023/01/27 13:14:50;;;;;;;0.00;0.00;;;2.40;99.90;;;;;;4932843;29;20785;-74
2023/01/27 13:17:29;;;;;;;0.00;0.00;;;2.40;99.90;;;;;;4934237;29;20512;-75
2023/01/27 13:20:02;;;;;;;0.00;0.00;;;2.40;99.90;;;;;;4935325;29;20024;-74
2023/01/27 13:22:36;;;;;;;0.00;0.00;;;2.30;99.90;;;;;;4932247;29;20635;-72
2023/01/27 13:25:03;;;;;;;0.00;0.00;;;2.30;99.90;;;;;;4932872;29;20020;-72
2023/01/27 13:27:39;;;;;;;0.00;0.00;;;2.30;99.90;;;;;;4931447;29;20032;-72
2023/01/27 13:30:40;;;;;;;0.00;0.00;;;2.30;99.90;;;;;;4930098;29;20035;-72
2023/01/27 13:33:39;;;;;;;0.00;0.00;;;2.20;99.90;;;;;;4930955;29;20024;-72
2023/01/27 13:36:13;;;;;;;0.00;0.00;;;2.10;99.90;;;;;;4931299;29;20024;-72
2023/01/27 13:38:53;;;;;;;0.00;0.00;;;2.00;99.90;;;;;;4933918;29;20145;-72
2023/01/27 13:41:35;;;;;;;0.00;0.00;;;2.00;99.90;;;;;;4932399;29;20141;-71
2023/01/27 13:44:55;;;;;;;0.00;0.00;;;2.00;99.90;;;;;;4932888;29;20437;-72
2023/01/27 13:47:27;;;;;;;;;;;2.10;99.90;;;;;;4885112;28;20046;-71
2023/01/27 13:50:04;;;;;;;0.00;0.00;;;2.00;99.90;;;;;;4933307;29;20345;-72
2023/01/27 13:52:29;;;;;;;0.00;0.00;;;1.90;99.90;;;;;;4930079;29;20629;-71